Time;durP1;ratioP1;P1;durP2;ratioP2;P2;SDS_P1;SDS_P2;PMS_P1;PMS_P2;Temp;Humidity;BMP_temperature;BMP_pressure;BME280_temperature;BME280_humidity;BME280_pressure;Samples;Min_cycle;Max_cycle;Signal;HPM_P1;HPM_P2
2021/05/06 00:14:31;;;;;;;1.55;0.82;;;;;;;18.89;46.29;100752.38;5053258;28;20079;-61
2021/05/06 00:32:07;;;;;;;2.77;0.90;;;;;;;18.78;46.52;100722.41;5053052;28;20552;-62
2021/05/06 00:34:35;;;;;;;1.30;0.75;;;;;;;18.78;46.23;100718.94;5051713;28;20036;-62
2021/05/06 00:37:01;;;;;;;1.85;0.90;;;;;;;18.78;46.29;100722.41;5052784;28;20025;-62
2021/05/06 00:39:31;;;;;;;1.85;0.65;;;;;;;18.77;46.25;100718.09;5052293;28;20113;-61
2021/05/06 01:00:55;;;;;;;2.00;0.82;;;;;;;18.68;46.80;100718.88;5052136;28;20025;-62
2021/05/06 01:05:54;;;;;;;3.50;0.90;;;;;;;18.66;46.46;100718.19;5052362;28;20098;-61
2021/05/06 01:08:24;;;;;;;2.45;0.90;;;;;;;18.64;46.55;100718.31;5051878;28;20332;-61
2021/05/06 01:13:28;;;;;;;2.13;0.80;;;;;;;18.55;46.67;100694.50;5052194;28;20033;-61
2021/05/06 01:15:58;;;;;;;3.38;1.15;;;;;;;18.62;46.63;100711.50;5052124;28;20083;-62
2021/05/06 01:18:24;;;;;;;3.00;0.90;;;;;;;18.60;46.55;100711.63;5051091;28;20017;-61
2021/05/06 01:20:54;;;;;;;1.42;0.70;;;;;;;18.61;46.71;100709.81;5051395;28;20110;-62
2021/05/06 01:23:21;;;;;;;1.50;0.75;;;;;;;18.60;46.51;100705.50;5051049;28;20052;-61
2021/05/06 01:25:53;;;;;;;4.32;1.40;;;;;;;18.59;46.50;100706.47;5051701;28;20476;-62
2021/05/06 01:28:22;;;;;;;2.28;0.80;;;;;;;18.58;46.76;100704.78;5051537;28;20413;-61
2021/05/06 01:30:54;;;;;;;1.70;0.90;;;;;;;18.56;46.68;100702.28;5051006;28;20375;-61
2021/05/06 01:35:57;;;;;;;2.22;1.00;;;;;;;18.56;46.50;100701.44;5052011;28;20052;-62
2021/05/06 01:41:02;;;;;;;1.83;0.70;;;;;;;18.55;46.75;100700.63;5051966;28;20033;-62
2021/05/06 01:49:42;;;;;;;2.50;0.90;;;;;;;18.52;46.66;100698.25;5052044;28;20082;-59
2021/05/06 01:59:59;;;;;;;2.53;0.90;;;;;;;18.44;46.71;100682.22;5051204;28;20110;-63
2021/05/06 02:02:26;;;;;;;2.78;1.10;;;;;;;18.47;46.70;100696.00;5051114;28;20017;-62
2021/05/06 02:04:53;;;;;;;2.92;0.98;;;;;;;18.46;46.44;100701.41;5054300;28;20032;-61
2021/05/06 02:07:18;;;;;;;2.90;1.00;;;;;;;18.44;46.53;100703.34;5054872;28;20053;-61
2021/05/06 02:09:48;;;;;;;2.42;1.00;;;;;;;18.44;46.63;100704.16;5055692;28;20025;-62
2021/05/06 02:12:15;;;;;;;2.30;0.80;;;;;;;18.43;46.55;100707.75;5055179;28;20021;-61
2021/05/06 02:14:46;;;;;;;1.77;0.88;;;;;;;18.44;46.68;100705.97;5054720;28;20029;-61
2021/05/06 02:17:15;;;;;;;2.95;0.98;;;;;;;18.42;46.58;100698.19;5055321;28;20044;-62
2021/05/06 02:19:47;;;;;;;2.13;0.80;;;;;;;18.38;46.60;100686.22;5055014;28;20025;-60
2021/05/06 02:22:17;;;;;;;3.08;0.90;;;;;;;18.37;46.49;100683.72;5055139;28;20398;-62
2021/05/06 02:24:43;;;;;;;1.80;0.73;;;;;;;18.38;46.82;100693.31;5055584;28;20039;-62
2021/05/06 02:27:09;;;;;;;2.47;1.10;;;;;;;18.39;46.47;100693.19;5053998;28;20135;-61
2021/05/06 02:29:34;;;;;;;2.63;1.15;;;;;;;18.39;46.67;100695.81;5054679;28;20112;-62
2021/05/06 02:32:00;;;;;;;1.97;0.80;;;;;;;18.33;46.45;100683.13;5055494;28;20033;-62
2021/05/06 02:34:25;;;;;;;2.75;1.00;;;;;;;18.36;46.89;100688.16;5054152;28;20373;-61
2021/05/06 02:36:53;;;;;;;2.47;0.90;;;;;;;18.33;46.50;100693.69;5055165;28;20025;-61
2021/05/06 02:39:18;;;;;;;4.43;0.90;;;;;;;18.34;46.68;100687.47;5054735;28;20269;-61
2021/05/06 02:41:44;;;;;;;3.65;0.90;;;;;;;18.34;46.54;100689.25;5054168;28;20060;-61
2021/05/06 02:44:10;;;;;;;1.88;0.80;;;;;;;18.32;46.67;100692.00;5054382;28;20167;-61
2021/05/06 02:46:35;;;;;;;2.50;0.80;;;;;;;18.32;46.53;100686.72;5054580;28;20396;-62
2021/05/06 02:49:00;;;;;;;4.00;0.93;;;;;;;18.31;46.47;100685.06;5054387;28;20040;-62
2021/05/06 02:51:32;;;;;;;2.92;1.05;;;;;;;18.31;46.66;100683.28;5054618;28;20163;-62
2021/05/06 02:53:57;;;;;;;3.00;0.90;;;;;;;18.29;46.43;100682.56;5055069;28;20041;-62
2021/05/06 03:04:18;;;;;;;5.03;1.20;;;;;;;18.27;46.56;100679.19;5054431;28;20095;-61
2021/05/06 03:07:07;;;;;;;2.78;0.90;;;;;;;18.26;46.43;100669.63;5054621;28;20124;-62
2021/05/06 03:12:27;;;;;;;2.72;0.80;;;;;;;18.25;46.36;100675.03;5054859;28;20033;-61
2021/05/06 03:22:55;;;;;;;3.67;1.23;;;;;;;18.22;46.34;100677.94;5057205;28;20054;-62
2021/05/06 03:25:22;;;;;;;3.67;0.90;;;;;;;18.22;46.64;100665.56;5058259;28;20055;-61
2021/05/06 03:34:37;;;;;;;2.33;0.90;;;;;;;18.30;46.38;100672.84;5057760;28;19923;-62
2021/05/06 03:41:42;;;;;;;5.35;1.05;;;;;;;18.39;46.32;100664.16;5032955;28;20180;-62
2021/05/06 03:49:55;;;;;;;3.03;0.80;;;;;;;18.40;45.97;100660.53;5053608;28;20039;-60
2021/05/06 04:17:07;;;;;;;2.58;1.00;;;;;;;18.25;45.44;100656.56;5053271;28;20087;-62
2021/05/06 04:27:32;;;;;;;3.72;1.10;;;;;;;18.31;46.25;100662.16;5051711;28;20230;-61
2021/05/06 04:30:21;;;;;;;2.70;1.70;;;;;;;18.34;46.35;100663.72;5052966;28;20384;-62
2021/05/06 04:35:45;;;;;;;2.65;1.00;;;;;;;18.41;46.01;100670.13;5052122;28;20043;-61
2021/05/06 04:38:12;;;;;;;3.97;1.27;;;;;;;18.38;45.88;100666.91;5053203;28;20021;-61
2021/05/06 04:44:11;;;;;;;2.78;0.93;;;;;;;18.43;46.11;100678.75;5052740;28;20054;-62
2021/05/06 04:46:40;;;;;;;2.77;0.87;;;;;;;18.40;45.85;100664.97;5052189;28;20121;-61
2021/05/06 04:54:36;;;;;;;4.13;1.10;;;;;;;18.42;46.09;100666.53;5054947;28;20138;-61
2021/05/06 04:57:17;;;;;;;3.08;1.10;;;;;;;18.36;45.79;100656.50;5052178;28;20035;-61
2021/05/06 05:05:13;;;;;;;3.00;1.13;;;;;;;18.40;45.57;100673.72;5052061;28;20128;-62
2021/05/06 05:07:44;;;;;;;3.08;1.00;;;;;;;18.38;45.40;100669.56;5052597;28;20067;-62
2021/05/06 05:10:26;;;;;;;4.35;1.23;;;;;;;18.37;45.07;100670.50;5052021;28;20033;-63
2021/05/06 05:18:20;;;;;;;3.85;1.05;;;;;;;18.45;45.84;100668.06;5052461;28;20042;-62
2021/05/06 05:21:13;;;;;;;3.38;0.90;;;;;;;18.54;45.90;100669.91;5052734;28;20116;-61
2021/05/06 05:23:42;;;;;;;2.78;1.02;;;;;;;18.59;45.69;100667.72;5051274;28;20368;-62
2021/05/06 05:26:10;;;;;;;3.55;0.98;;;;;;;18.65;45.42;100674.28;5051869;28;20017;-62
2021/05/06 05:28:37;;;;;;;2.13;0.90;;;;;;;18.70;45.13;100669.44;5051793;28;20079;-61
2021/05/06 05:31:02;;;;;;;2.92;1.00;;;;;;;18.79;45.18;100671.28;5051171;28;20061;-61
2021/05/06 05:36:22;;;;;;;2.40;0.82;;;;;;;18.94;44.69;100663.84;5040538;28;20465;-63
2021/05/06 05:39:13;;;;;;;4.53;1.00;;;;;;;19.03;44.70;100667.50;5050187;28;20090;-63
2021/05/06 05:44:27;;;;;;;2.23;0.80;;;;;;;19.15;44.62;100666.44;5051199;28;20025;-63
2021/05/06 05:55:05;;;;;;;1.88;0.80;;;;;;;19.40;44.50;100677.44;5051739;28;20103;-62
2021/05/06 05:57:33;;;;;;;3.97;1.10;;;;;;;19.43;44.55;100682.44;5051003;28;20041;-65
2021/05/06 05:59:58;;;;;;;2.28;0.85;;;;;;;19.47;44.61;100680.38;5050958;28;20409;-63
2021/05/06 06:02:27;;;;;;;1.95;0.80;;;;;;;19.51;44.55;100673.84;5051243;28;20029;-62
2021/05/06 06:04:52;;;;;;;3.63;1.02;;;;;;;19.52;44.43;100676.34;5049410;28;20028;-63
2021/05/06 06:07:17;;;;;;;2.07;0.87;;;;;;;19.55;44.39;100675.22;5051122;28;20113;-63
2021/05/06 06:09:43;;;;;;;1.92;0.70;;;;;;;19.56;44.17;100671.63;5051462;28;20281;-64
2021/05/06 06:12:10;;;;;;;3.63;1.00;;;;;;;19.61;44.38;100674.66;5050826;28;20025;-66
2021/05/06 06:15:12;;;;;;;3.25;0.90;;;;;;;19.66;44.03;100679.53;5050824;28;20453;-62
2021/05/06 06:17:41;;;;;;;3.55;1.20;;;;;;;19.69;43.71;100671.34;5050627;28;20048;-62
2021/05/06 06:20:09;;;;;;;2.38;0.80;;;;;;;19.70;43.80;100673.84;5050534;28;20088;-63
2021/05/06 06:22:35;;;;;;;3.78;0.90;;;;;;;19.75;44.10;100676.91;5050940;28;20025;-61
2021/05/06 06:25:03;;;;;;;3.53;0.90;;;;;;;19.78;44.19;100675.00;5051094;28;20028;-61
2021/05/06 06:27:34;;;;;;;5.57;1.08;;;;;;;19.77;44.14;100674.16;5048564;28;20175;-66
2021/05/06 06:30:01;;;;;;;4.80;1.10;;;;;;;19.81;44.20;100682.66;5051514;28;20087;-65
2021/05/06 06:32:29;;;;;;;4.07;1.00;;;;;;;19.83;44.26;100681.53;5051696;28;20044;-62
2021/05/06 06:34:57;;;;;;;4.07;1.08;;;;;;;19.83;44.17;100672.75;5050411;28;20032;-62
2021/05/06 06:37:22;;;;;;;2.90;0.93;;;;;;;19.86;44.03;100672.50;5050774;28;20032;-60
2021/05/06 06:39:48;;;;;;;3.60;0.90;;;;;;;19.88;43.96;100681.94;5050297;28;20021;-59
2021/05/06 06:42:13;;;;;;;4.45;1.10;;;;;;;19.89;43.87;100683.63;5050940;28;20112;-61
2021/05/06 06:44:39;;;;;;;4.40;1.30;;;;;;;19.89;43.86;100675.69;5051147;28;20025;-60
2021/05/06 06:47:07;;;;;;;3.25;0.80;;;;;;;19.91;44.25;100676.38;5050322;28;20112;-59
2021/05/06 06:49:37;;;;;;;4.07;1.10;;;;;;;19.92;43.90;100672.75;5050936;28;20041;-60
2021/05/06 06:52:06;;;;;;;3.17;1.10;;;;;;;19.91;44.27;100675.53;5054666;28;20029;-61
2021/05/06 06:54:32;;;;;;;4.38;0.90;;;;;;;19.88;44.41;100666.06;5053389;28;20558;-61
2021/05/06 06:57:00;;;;;;;3.20;0.90;;;;;;;19.89;44.46;100664.28;5054768;28;20041;-61
2021/05/06 06:59:26;;;;;;;5.70;1.05;;;;;;;19.87;44.29;100669.72;5054555;28;20031;-61
2021/05/06 07:01:52;;;;;;;3.67;1.20;;;;;;;19.85;44.94;100666.38;5053850;28;20035;-60
2021/05/06 07:04:17;;;;;;;7.07;0.90;;;;;;;19.82;44.66;100660.50;5054312;28;20037;-61
2021/05/06 07:06:43;;;;;;;6.10;1.42;;;;;;;19.84;45.24;100659.41;5055373;28;20124;-65
2021/05/06 07:09:09;;;;;;;9.05;1.38;;;;;;;19.87;45.34;100660.94;5055454;28;20068;-63
2021/05/06 07:11:38;;;;;;;5.25;1.30;;;;;;;19.89;45.59;100664.28;5054105;28;20017;-63
2021/05/06 07:14:05;;;;;;;5.32;1.23;;;;;;;19.88;46.06;100662.59;5054806;28;20464;-64
2021/05/06 07:16:31;;;;;;;5.80;1.38;;;;;;;19.87;45.91;100660.94;5057510;28;20380;-64
2021/05/06 07:18:59;;;;;;;3.63;1.08;;;;;;;19.82;46.33;100664.00;5054291;28;20329;-63
2021/05/06 07:21:25;;;;;;;5.93;1.30;;;;;;;19.79;46.26;100664.28;5053684;28;20104;-63
2021/05/06 07:23:54;;;;;;;3.60;1.00;;;;;;;19.74;46.20;100659.38;5053031;28;20416;-60
2021/05/06 07:26:25;;;;;;;5.82;1.40;;;;;;;19.71;46.10;100664.09;5051061;28;20558;-63
2021/05/06 07:28:51;;;;;;;4.43;1.08;;;;;;;19.68;46.17;100652.00;5054157;28;20116;-63
2021/05/06 07:31:16;;;;;;;5.53;1.35;;;;;;;19.64;46.15;100653.25;5052967;28;20013;-63
2021/05/06 07:33:43;;;;;;;3.53;1.27;;;;;;;19.62;46.16;100660.50;5053887;28;20029;-63
2021/05/06 07:36:12;;;;;;;4.20;1.40;;;;;;;19.56;46.43;100656.56;5053037;28;20107;-63
2021/05/06 07:38:37;;;;;;;5.78;1.33;;;;;;;19.55;46.38;100668.16;5053944;28;20029;-63
2021/05/06 07:41:03;;;;;;;5.88;1.48;;;;;;;19.48;46.54;100659.09;5053659;28;20025;-62
2021/05/06 07:43:32;;;;;;;6.10;1.20;;;;;;;19.47;46.62;100673.28;5052738;28;20021;-64
2021/05/06 07:46:07;;;;;;;5.35;1.50;;;;;;;19.46;46.66;100670.78;5053514;28;20459;-63
2021/05/06 07:48:32;;;;;;;4.80;1.40;;;;;;;19.42;46.79;100662.28;5053242;28;20071;-62
2021/05/06 07:50:58;;;;;;;6.50;1.30;;;;;;;19.39;46.97;100658.13;5053059;28;20021;-63
2021/05/06 07:53:34;;;;;;;4.18;1.25;;;;;;;19.41;47.24;100668.56;5053407;28;20032;-66
2021/05/06 07:56:00;;;;;;;5.28;1.25;;;;;;;19.43;47.10;100663.13;4915302;28;23015;-60
2021/05/06 07:58:25;;;;;;;6.45;1.60;;;;;;;19.44;46.99;100657.72;5005384;28;20041;-62
2021/05/06 08:00:50;;;;;;;4.35;1.45;;;;;;;19.39;47.08;100658.13;5052617;28;20091;-62
2021/05/06 08:03:15;;;;;;;5.28;1.25;;;;;;;19.41;47.01;100663.25;5052496;28;20036;-62
2021/05/06 08:05:41;;;;;;;3.27;0.90;;;;;;;19.43;46.71;100650.75;4950072;28;20052;-61
2021/05/06 08:08:06;;;;;;;4.72;1.40;;;;;;;19.44;46.33;100649.78;5042134;28;20270;-60
2021/05/06 08:10:32;;;;;;;4.00;1.40;;;;;;;19.49;46.48;100646.72;5052973;28;20033;-60
2021/05/06 08:13:02;;;;;;;6.22;1.20;;;;;;;19.51;46.56;100642.13;5052649;28;20025;-60
2021/05/06 08:15:30;;;;;;;4.80;1.25;;;;;;;19.51;46.46;100645.59;5043276;28;20115;-60
2021/05/06 08:17:56;;;;;;;4.28;1.27;;;;;;;19.50;46.51;100638.66;5053074;28;20052;-62
2021/05/06 08:20:21;;;;;;;3.83;1.20;;;;;;;19.48;46.56;100630.00;5052513;28;20036;-62
2021/05/06 08:22:47;;;;;;;3.85;1.30;;;;;;;19.51;46.37;100634.19;5053770;28;20029;-62
2021/05/06 08:25:18;;;;;;;3.20;0.98;;;;;;;19.52;46.70;100626.13;5053060;28;20457;-62
2021/05/06 08:27:44;;;;;;;3.60;1.00;;;;;;;19.51;46.80;100624.44;5053366;28;20041;-62
2021/05/06 08:30:12;;;;;;;6.28;1.40;;;;;;;19.52;46.50;100625.31;5053013;28;20043;-62
2021/05/06 08:32:47;;;;;;;2.83;1.08;;;;;;;19.50;46.62;100625.44;5047161;28;20477;-61
2021/05/06 08:35:13;;;;;;;3.97;0.98;;;;;;;19.50;46.19;100622.81;5052800;28;20037;-61
2021/05/06 08:37:38;;;;;;;3.90;1.00;;;;;;;19.50;46.34;100621.94;5053600;28;20404;-62
2021/05/06 08:40:05;;;;;;;4.25;1.10;;;;;;;19.49;46.69;100621.13;5052382;28;20017;-62
2021/05/06 08:42:31;;;;;;;3.10;0.95;;;;;;;19.48;46.70;100626.53;5052455;28;20527;-63
2021/05/06 08:45:03;;;;;;;5.53;1.00;;;;;;;19.45;46.42;100625.00;5052840;28;20047;-63
2021/05/06 08:47:29;;;;;;;3.90;1.10;;;;;;;19.45;46.67;100630.28;5046847;28;20123;-63
2021/05/06 08:49:54;;;;;;;3.80;1.13;;;;;;;19.46;46.45;100625.84;5052794;28;20036;-63
2021/05/06 08:52:20;;;;;;;3.75;1.15;;;;;;;19.46;46.39;100623.22;5052220;28;20028;-61
2021/05/06 08:54:50;;;;;;;4.03;0.90;;;;;;;19.43;46.38;100626.97;5051434;28;20219;-63
2021/05/06 08:57:19;;;;;;;3.83;1.10;;;;;;;19.40;46.48;100622.78;5051780;28;20207;-61
2021/05/06 08:59:44;;;;;;;3.40;1.20;;;;;;;19.35;46.31;100630.28;5052412;28;20021;-61
2021/05/06 09:02:13;;;;;;;3.53;1.10;;;;;;;19.29;46.50;100620.25;5033825;28;20400;-61
2021/05/06 09:04:39;;;;;;;2.78;1.00;;;;;;;19.28;46.55;100613.31;4982923;28;20140;-61
2021/05/06 09:07:08;;;;;;;5.10;1.20;;;;;;;19.29;46.40;100628.19;5025283;28;20176;-61
2021/05/06 09:09:33;;;;;;;5.75;1.58;;;;;;;19.26;46.78;100620.53;5050309;28;20037;-62
2021/05/06 09:12:08;;;;;;;3.03;0.80;;;;;;;19.31;46.72;100626.25;5052372;28;20464;-65
2021/05/06 09:14:35;;;;;;;5.93;1.30;;;;;;;19.35;46.66;100625.00;5050361;28;20037;-64
2021/05/06 09:17:00;;;;;;;3.92;0.90;;;;;;;19.38;46.93;100626.53;5052604;28;20112;-64
2021/05/06 09:19:25;;;;;;;3.33;0.80;;;;;;;19.45;47.00;100621.53;5051978;28;20053;-63
2021/05/06 09:21:51;;;;;;;2.70;0.90;;;;;;;19.50;47.00;100630.72;5051699;28;20029;-63
2021/05/06 09:24:25;;;;;;;4.55;1.10;;;;;;;19.54;46.86;100615.41;5035848;28;20040;-62
2021/05/06 09:26:56;;;;;;;3.97;0.93;;;;;;;19.57;47.31;100618.59;5051974;28;20049;-61
2021/05/06 09:29:31;;;;;;;7.28;1.10;;;;;;;19.61;47.25;100618.34;5050912;28;20539;-61
2021/05/06 09:32:14;;;;;;;4.03;1.10;;;;;;;19.63;47.05;100621.66;5052357;28;20468;-61
2021/05/06 09:34:42;;;;;;;3.47;1.00;;;;;;;19.62;47.08;100618.19;5051781;28;20033;-64
2021/05/06 09:37:20;;;;;;;3.38;1.15;;;;;;;19.63;47.17;100613.72;5051459;28;20100;-61
2021/05/06 09:39:47;;;;;;;4.38;1.00;;;;;;;19.62;47.26;100606.78;5044682;28;20037;-64
2021/05/06 09:42:12;;;;;;;3.20;1.02;;;;;;;19.63;47.25;100611.94;5051902;28;20404;-63
2021/05/06 09:45:18;;;;;;;4.90;0.93;;;;;;;19.64;46.83;100607.47;5051163;28;20029;-63
2021/05/06 09:48:28;;;;;;;2.50;0.80;;;;;;;19.65;46.63;100607.34;5031523;28;20040;-63
2021/05/06 09:51:00;;;;;;;4.88;1.23;;;;;;;19.64;46.79;100605.66;5051175;28;20029;-65
2021/05/06 09:53:31;;;;;;;5.80;1.25;;;;;;;19.63;46.80;100605.81;5044923;28;20021;-62
2021/05/06 09:56:03;;;;;;;3.35;0.90;;;;;;;19.57;46.92;100596.63;5051750;28;20036;-62
2021/05/06 09:58:33;;;;;;;4.00;0.98;;;;;;;19.56;46.89;100595.78;5051054;28;20104;-61
2021/05/06 10:01:10;;;;;;;5.05;1.00;;;;;;;19.55;47.08;100594.13;5051238;28;20040;-59
2021/05/06 10:03:35;;;;;;;1.90;0.77;;;;;;;19.53;47.27;100592.59;5051502;28;20104;-59
2021/05/06 10:06:12;;;;;;;4.38;1.00;;;;;;;19.53;47.11;100590.78;5050937;28;20129;-60
2021/05/06 10:08:38;;;;;;;4.45;1.00;;;;;;;19.52;47.35;100590.94;5027801;28;20450;-61
2021/05/06 10:11:18;;;;;;;3.38;1.00;;;;;;;19.48;46.78;100589.53;5051189;28;20055;-61
2021/05/06 10:13:45;;;;;;;3.67;0.90;;;;;;;19.45;47.01;100579.25;5051935;28;20093;-60
2021/05/06 10:16:13;;;;;;;4.72;1.00;;;;;;;19.44;46.53;100585.50;5051618;28;20029;-60
2021/05/06 10:18:40;;;;;;;2.58;0.93;;;;;;;19.39;46.19;100581.47;5051152;28;20112;-64
2021/05/06 10:21:10;;;;;;;2.78;0.93;;;;;;;19.37;46.01;100579.94;5051498;28;20033;-62
2021/05/06 10:23:37;;;;;;;4.18;1.10;;;;;;;19.39;46.44;100577.97;5015174;28;20041;-61
2021/05/06 10:26:03;;;;;;;4.47;0.80;;;;;;;19.39;46.14;100580.63;5053068;28;20060;-59
2021/05/06 10:28:34;;;;;;;3.70;0.90;;;;;;;19.39;46.25;100570.06;5055224;28;20116;-60
2021/05/06 10:31:08;;;;;;;4.00;1.05;;;;;;;19.37;46.27;100566.72;5055535;28;20032;-60
2021/05/06 10:33:37;;;;;;;2.15;1.10;;;;;;;19.34;46.37;100565.22;5054392;28;20032;-61
2021/05/06 10:36:04;;;;;;;2.45;0.95;;;;;;;19.32;46.40;100556.56;5055438;28;20041;-61
2021/05/06 10:38:35;;;;;;;2.83;0.85;;;;;;;19.38;46.41;100561.31;5054883;28;20090;-62
2021/05/06 10:41:22;;;;;;;3.75;1.05;;;;;;;19.45;45.91;100553.66;5054414;28;20049;-62
2021/05/06 10:43:54;;;;;;;2.50;0.90;;;;;;;19.48;46.25;100548.06;5055294;28;20063;-61
2021/05/06 10:46:40;;;;;;;7.07;0.90;;;;;;;19.49;46.09;100549.75;5054204;28;20104;-61
2021/05/06 10:49:05;;;;;;;3.75;1.20;;;;;;;19.52;45.95;100544.19;5054847;28;20322;-60
2021/05/06 10:51:44;;;;;;;3.47;0.95;;;;;;;19.56;45.42;100542.09;5054756;28;20032;-61
2021/05/06 10:54:30;;;;;;;4.95;1.00;;;;;;;19.56;45.57;100534.16;5054197;28;20468;-61
2021/05/06 10:57:00;;;;;;;2.85;1.00;;;;;;;19.54;45.66;100523.72;5055065;28;20028;-61
2021/05/06 10:59:31;;;;;;;4.03;1.15;;;;;;;19.55;45.27;100535.13;5054557;28;20041;-61
2021/05/06 11:01:57;;;;;;;3.92;1.17;;;;;;;19.53;45.39;100529.97;5054629;28;20035;-61
2021/05/06 11:04:47;;;;;;;4.65;0.90;;;;;;;19.54;45.83;100531.66;5054486;28;20029;-61
2021/05/06 11:07:18;;;;;;;5.60;1.13;;;;;;;19.53;45.53;100527.34;5053823;28;20107;-61
2021/05/06 11:09:46;;;;;;;3.42;0.88;;;;;;;19.52;45.87;100522.22;5054970;28;20130;-61
2021/05/06 11:12:36;;;;;;;5.88;1.13;;;;;;;19.55;45.68;100516.63;5055091;28;20032;-61
2021/05/06 11:15:02;;;;;;;4.45;1.10;;;;;;;19.54;45.50;100513.16;5054016;28;20033;-61
2021/05/06 11:17:37;;;;;;;3.85;0.98;;;;;;;19.55;45.45;100511.34;5054307;28;20025;-61
2021/05/06 11:20:25;;;;;;;2.85;1.27;;;;;;;19.55;45.43;100509.56;5054471;28;20044;-61
2021/05/06 11:22:55;;;;;;;2.97;1.10;;;;;;;19.55;45.54;100501.63;5054147;28;20032;-61
2021/05/06 11:25:30;;;;;;;2.85;0.90;;;;;;;19.57;45.49;100501.47;5054115;28;20056;-61
2021/05/06 11:28:00;;;;;;;2.90;0.90;;;;;;;19.57;45.57;100499.66;5054076;28;20052;-61
2021/05/06 11:30:44;;;;;;;2.65;0.90;;;;;;;19.60;45.40;100490.63;5053193;28;20032;-60
2021/05/06 11:33:15;;;;;;;3.93;1.00;;;;;;;19.62;45.28;100491.31;5054128;28;20021;-62
2021/05/06 11:36:11;;;;;;;2.55;1.00;;;;;;;19.64;45.11;100489.34;5053255;28;20043;-61
2021/05/06 11:38:37;;;;;;;4.55;1.00;;;;;;;19.68;45.16;100484.63;5053503;28;20022;-61
2021/05/06 11:41:03;;;;;;;5.05;1.17;;;;;;;19.70;45.14;100482.66;5054108;28;20036;-60
2021/05/06 11:43:32;;;;;;;2.63;0.93;;;;;;;19.70;44.89;100478.19;5053053;28;20036;-60
2021/05/06 11:46:05;;;;;;;2.33;0.90;;;;;;;19.72;44.90;100478.88;5053746;28;20352;-61
2021/05/06 11:48:38;;;;;;;3.35;0.85;;;;;;;19.72;45.15;100478.88;5053573;28;20530;-61
2021/05/06 11:51:08;;;;;;;2.40;0.93;;;;;;;19.71;45.20;100474.59;5053221;28;20025;-61
2021/05/06 11:53:35;;;;;;;2.17;0.90;;;;;;;19.70;45.07;100469.44;5053011;28;20562;-60
2021/05/06 11:56:12;;;;;;;4.05;1.10;;;;;;;19.70;45.07;100470.25;5053682;28;20032;-59
2021/05/06 11:58:43;;;;;;;3.30;1.00;;;;;;;19.70;45.19;100469.44;5053291;28;20472;-60
2021/05/06 12:01:09;;;;;;;4.13;1.00;;;;;;;19.68;45.49;100466.94;5053743;28;20025;-60
2021/05/06 12:03:43;;;;;;;4.60;0.93;;;;;;;19.67;45.69;100469.72;5052468;28;20376;-61
2021/05/06 12:06:25;;;;;;;4.07;1.10;;;;;;;19.67;45.34;100473.19;5053556;28;20036;-62
2021/05/06 12:08:50;;;;;;;3.72;1.00;;;;;;;19.63;45.28;100463.06;5053397;28;20104;-60
2021/05/06 12:11:16;;;;;;;2.22;0.90;;;;;;;19.61;45.52;100457.09;5052349;28;20108;-62
2021/05/06 12:13:46;;;;;;;3.60;0.75;;;;;;;19.59;45.47;100454.59;5053632;28;20433;-63
2021/05/06 12:16:24;;;;;;;2.92;1.10;;;;;;;19.58;45.34;100460.84;5053377;28;20041;-63
2021/05/06 12:19:08;;;;;;;3.72;1.05;;;;;;;19.57;45.29;100457.38;5052900;28;20053;-63
2021/05/06 12:21:51;;;;;;;3.33;0.85;;;;;;;19.47;45.54;100435.44;5052735;28;20094;-63
2021/05/06 12:24:29;;;;;;;5.50;1.10;;;;;;;19.54;45.67;100452.38;5053003;28;20025;-60
2021/05/06 12:26:55;;;;;;;5.22;1.25;;;;;;;19.53;45.32;100453.34;5053110;28;20388;-61
2021/05/06 12:29:27;;;;;;;4.45;1.10;;;;;;;19.55;45.62;100448.75;5053205;28;20025;-62
2021/05/06 12:31:56;;;;;;;2.45;0.98;;;;;;;19.59;45.43;100451.94;5052453;28;20035;-61
2021/05/06 12:34:24;;;;;;;3.20;0.90;;;;;;;19.62;45.45;100450.84;5052927;28;20149;-62
2021/05/06 12:36:57;;;;;;;3.35;0.90;;;;;;;19.63;45.54;100453.34;5053034;28;20086;-61
2021/05/06 12:39:24;;;;;;;3.45;1.10;;;;;;;19.65;45.78;100442.63;5051857;28;20029;-60
2021/05/06 12:41:51;;;;;;;2.55;1.05;;;;;;;19.68;45.65;100445.78;5052865;28;20444;-61
2021/05/06 12:44:39;;;;;;;5.25;1.85;;;;;;;19.73;45.65;100446.19;5052602;28;20437;-61
2021/05/06 12:47:24;;;;;;;2.60;0.90;;;;;;;19.75;45.47;100441.56;5051929;28;20478;-60
2021/05/06 12:50:09;;;;;;;7.15;1.10;;;;;;;19.78;45.50;100429.91;5052817;28;20033;-59
2021/05/06 12:52:37;;;;;;;5.03;1.10;;;;;;;19.85;45.98;100438.09;5051699;28;20376;-60
2021/05/06 12:55:25;;;;;;;3.10;0.90;;;;;;;19.89;45.75;100428.91;5052824;28;20035;-61
2021/05/06 12:58:20;;;;;;;3.90;1.20;;;;;;;19.92;45.95;100418.88;5052773;28;20104;-60
2021/05/06 13:00:51;;;;;;;4.88;1.10;;;;;;;19.94;45.63;100424.81;5051682;28;20115;-61
2021/05/06 13:03:17;;;;;;;3.00;0.82;;;;;;;19.93;45.83;100409.09;5052343;28;20043;-61
2021/05/06 13:05:47;;;;;;;3.78;1.25;;;;;;;19.93;46.11;100411.75;5052645;28;20441;-62
2021/05/06 13:08:13;;;;;;;4.22;1.42;;;;;;;19.91;46.22;100409.25;5050836;28;20342;-60
2021/05/06 13:10:48;;;;;;;3.35;1.25;;;;;;;19.91;46.13;100403.97;5052472;28;20028;-61
2021/05/06 13:13:45;;;;;;;5.72;1.40;;;;;;;19.93;46.32;100396.75;5051744;28;20464;-61
2021/05/06 13:16:18;;;;;;;6.20;1.58;;;;;;;19.90;46.24;100390.88;5052174;28;20072;-60
2021/05/06 13:19:07;;;;;;;5.55;1.20;;;;;;;19.88;46.79;100391.03;5052385;28;20491;-63
2021/05/06 13:21:34;;;;;;;3.60;1.15;;;;;;;19.86;46.64;100386.88;5051196;28;20040;-60
2021/05/06 13:24:01;;;;;;;3.55;1.10;;;;;;;19.84;46.96;100397.63;5052048;28;20035;-60
2021/05/06 13:26:36;;;;;;;4.00;1.13;;;;;;;19.83;47.13;100401.22;5051529;28;20100;-60
2021/05/06 13:29:16;;;;;;;4.28;1.40;;;;;;;19.79;47.35;100389.28;5051336;28;20068;-62
2021/05/06 13:31:46;;;;;;;5.95;1.60;;;;;;;19.78;47.69;100386.78;5051906;28;20106;-60
2021/05/06 13:34:28;;;;;;;4.60;1.30;;;;;;;19.77;47.77;100387.75;5051678;28;20017;-60
2021/05/06 13:37:05;;;;;;;4.93;1.35;;;;;;;19.74;47.71;100383.56;5051263;28;20021;-61
2021/05/06 13:39:34;;;;;;;5.65;1.48;;;;;;;19.72;47.85;100386.34;5051320;28;20021;-60
2021/05/06 13:41:59;;;;;;;4.85;1.23;;;;;;;19.69;48.08;100378.75;5050998;28;20029;-61
2021/05/06 13:44:26;;;;;;;3.60;1.20;;;;;;;19.68;48.21;100373.59;5051693;28;20070;-62
2021/05/06 13:46:54;;;;;;;4.68;1.23;;;;;;;19.65;47.91;100384.47;5051636;28;20136;-62
2021/05/06 13:49:30;;;;;;;5.30;1.23;;;;;;;19.65;47.84;100366.78;5050792;28;20104;-62
2021/05/06 13:51:57;;;;;;;5.07;1.35;;;;;;;19.67;48.04;100369.28;5051650;28;20040;-61
2021/05/06 13:54:23;;;;;;;6.45;1.23;;;;;;;19.65;48.11;100368.59;5051304;28;20032;-61
2021/05/06 13:56:48;;;;;;;5.00;1.48;;;;;;;19.65;48.08;100366.78;5050807;28;20036;-60
2021/05/06 13:59:14;;;;;;;3.58;1.38;;;;;;;19.66;47.91;100370.25;5050186;28;20029;-61
2021/05/06 14:01:39;;;;;;;5.68;1.70;;;;;;;19.67;47.64;100356.88;5051591;28;20380;-61
2021/05/06 14:04:08;;;;;;;4.60;1.63;;;;;;;19.69;47.59;100357.59;5050787;28;20028;-61
2021/05/06 14:06:35;;;;;;;4.35;1.20;;;;;;;19.67;47.84;100346.31;5051421;28;20032;-61
2021/05/06 14:09:00;;;;;;;4.35;1.35;;;;;;;19.71;47.78;100354.78;5051519;28;20032;-59
2021/05/06 14:11:26;;;;;;;4.95;1.55;;;;;;;19.72;48.06;100353.81;5050144;28;20033;-60
2021/05/06 14:13:54;;;;;;;7.10;1.75;;;;;;;19.74;47.95;100357.97;5051307;28;20029;-62
2021/05/06 14:16:19;;;;;;;4.30;1.55;;;;;;;19.73;47.97;100350.19;5051048;28;20116;-62
2021/05/06 14:18:44;;;;;;;5.05;1.45;;;;;;;19.71;47.70;100349.47;5050670;28;20113;-60
2021/05/06 14:21:11;;;;;;;4.78;1.30;;;;;;;19.69;47.71;100347.00;5051321;28;20052;-62
2021/05/06 14:23:45;;;;;;;5.57;1.52;;;;;;;19.65;47.56;100340.34;5050992;28;20074;-60
2021/05/06 14:26:13;;;;;;;4.85;1.50;;;;;;;19.61;47.74;100338.13;5050562;28;20040;-60
2021/05/06 14:28:39;;;;;;;4.07;1.40;;;;;;;19.58;47.65;100334.81;5051096;28;20041;-60
2021/05/06 14:31:04;;;;;;;5.22;1.35;;;;;;;19.55;47.32;100326.31;5050768;28;20044;-61
2021/05/06 14:33:32;;;;;;;4.63;1.25;;;;;;;19.52;47.41;100326.66;5051145;28;20029;-61
2021/05/06 14:35:58;;;;;;;5.35;1.38;;;;;;;19.53;47.49;100325.66;5051311;28;20068;-60